createdAt,value
2023-02-18T01:18:47.060Z,26.24
2023-02-18T01:19:47.075Z,26.24
2023-02-18T01:20:47.058Z,26.25
2023-02-18T01:21:47.015Z,26.28
2023-02-18T01:22:47.023Z,26.26
2023-02-18T01:23:47.005Z,26.28
2023-02-18T01:24:46.985Z,26.26
2023-02-18T01:25:46.966Z,26.26
2023-02-18T01:26:46.956Z,26.24
2023-02-18T01:27:47.233Z,26.26
2023-02-18T01:28:46.932Z,26.28
2023-02-18T01:29:46.916Z,26.26
2023-02-18T01:30:46.901Z,26.24
2023-02-18T01:31:46.997Z,26.24
2023-02-18T01:32:46.883Z,26.24
2023-02-18T01:33:46.868Z,26.26
2023-02-18T01:34:46.867Z,26.26
2023-02-18T01:35:46.856Z,26.22
2023-02-18T01:36:46.848Z,26.26
2023-02-18T01:37:46.810Z,26.26
2023-02-18T01:38:46.813Z,26.24
2023-02-18T01:39:46.783Z,26.25
2023-02-18T01:40:46.831Z,26.25
2023-02-18T01:41:46.786Z,26.25
2023-02-18T01:42:46.775Z,26.26
2023-02-18T01:43:46.758Z,26.28
2023-02-18T01:44:46.751Z,26.26
2023-02-18T01:45:46.718Z,26.28
2023-02-18T01:46:46.775Z,26.26
2023-02-18T01:47:46.741Z,26.26
2023-02-18T01:48:46.719Z,26.26
2023-02-18T01:49:46.688Z,26.26
2023-02-18T01:50:46.718Z,26.22
2023-02-18T01:51:46.664Z,26.26
2023-02-18T01:52:46.662Z,26.25
2023-02-18T01:53:46.643Z,26.29
2023-02-18T01:54:46.617Z,26.24
2023-02-18T01:55:46.616Z,26.29
2023-02-18T01:56:46.628Z,26.31
2023-02-18T01:57:46.599Z,26.28
2023-02-18T01:58:46.598Z,26.29
2023-02-18T01:59:46.571Z,26.25
2023-02-18T02:00:46.605Z,26.26
2023-02-18T02:01:46.579Z,26.29
2023-02-18T02:02:46.534Z,26.25
2023-02-18T02:03:46.527Z,26.26
2023-02-18T02:04:46.502Z,26.31
2023-02-18T02:05:46.504Z,26.26
2023-02-18T02:06:46.483Z,26.25
2023-02-18T02:07:46.486Z,26.28
2023-02-18T02:08:46.476Z,26.29
2023-02-18T02:09:46.471Z,26.28
2023-02-18T02:10:46.446Z,26.28
2023-02-18T02:11:46.447Z,26.26
2023-02-18T02:12:46.446Z,26.29
2023-02-18T02:13:46.417Z,26.28
2023-02-18T02:14:46.422Z,26.31
2023-02-18T02:15:46.398Z,26.29
2023-02-18T02:16:46.374Z,26.31
2023-02-18T02:17:46.377Z,26.32
2023-02-18T02:18:46.356Z,26.28
2023-02-18T02:19:46.337Z,26.28
2023-02-18T02:20:46.349Z,26.28
2023-02-18T02:21:46.334Z,26.28
2023-02-18T02:22:46.298Z,26.29
2023-02-18T02:23:46.291Z,26.26
2023-02-18T02:24:46.260Z,26.26
2023-02-18T02:25:46.270Z,26.26
2023-02-18T02:26:46.236Z,26.28
2023-02-18T02:27:46.233Z,26.26
2023-02-18T02:28:46.211Z,26.28
2023-02-18T02:29:46.189Z,26.28
2023-02-18T02:30:46.175Z,26.31
2023-02-18T02:31:46.202Z,26.24
2023-02-18T02:32:46.150Z,26.26
2023-02-18T02:33:46.155Z,26.24
2023-02-18T02:34:46.100Z,26.19
2023-02-18T02:35:46.095Z,26.08
2023-02-18T02:36:46.080Z,25.94
2023-02-18T02:37:46.067Z,25.92
2023-02-18T02:38:46.065Z,25.84
2023-02-18T02:39:46.052Z,25.70
2023-02-18T02:40:46.109Z,25.64
2023-02-18T02:41:46.036Z,25.54
2023-02-18T02:42:46.021Z,25.60
2023-02-18T02:43:46.021Z,25.46
2023-02-18T02:44:46.028Z,25.43
2023-02-18T02:45:46.009Z,25.42
2023-02-18T02:46:46.014Z,25.43
2023-02-18T02:47:45.968Z,25.26
2023-02-18T02:48:45.980Z,25.25
2023-02-18T02:49:45.971Z,25.25
2023-02-18T02:50:45.946Z,25.29
2023-02-18T02:51:45.947Z,25.15
2023-02-18T02:52:46.927Z,25.22
2023-02-18T02:53:45.969Z,25.21
2023-02-18T02:54:45.950Z,25.17
2023-02-18T02:55:45.941Z,25.17
2023-02-18T02:56:45.930Z,25.21
2023-02-18T02:57:45.908Z,25.17
2023-02-18T02:58:45.909Z,25.11
2023-02-18T02:59:45.909Z,24.99
2023-02-18T03:00:45.942Z,25.09
2023-02-18T03:01:45.904Z,25.08
2023-02-18T03:02:45.925Z,25.04
2023-02-18T03:03:45.916Z,25.02
2023-02-18T03:04:45.916Z,25.07
2023-02-18T03:05:45.912Z,25.04
2023-02-18T03:06:45.885Z,24.99
2023-02-18T03:07:45.907Z,25.11
2023-02-18T03:08:45.894Z,25.17
2023-02-18T03:09:45.935Z,25.25
2023-02-18T03:10:45.894Z,25.30
2023-02-18T03:11:45.899Z,25.33
2023-02-18T03:12:45.882Z,25.40
2023-02-18T03:13:45.913Z,25.45
2023-02-18T03:14:45.926Z,25.47
2023-02-18T03:15:45.868Z,25.49
2023-02-18T03:16:45.930Z,25.54
2023-02-18T03:17:45.889Z,25.57
2023-02-18T03:18:45.876Z,25.60
2023-02-18T03:19:45.862Z,25.62
2023-02-18T03:20:45.864Z,25.63
2023-02-18T03:21:45.847Z,25.67
2023-02-18T03:22:45.848Z,25.69
2023-02-18T03:23:45.862Z,25.73
2023-02-18T03:24:45.832Z,25.71
2023-02-18T03:25:45.816Z,25.74
2023-02-18T03:26:45.840Z,25.77
2023-02-18T03:27:45.821Z,25.79
2023-02-18T03:28:45.802Z,25.80
2023-02-18T03:29:45.818Z,25.84
2023-02-18T03:30:45.816Z,25.83
2023-02-18T03:31:45.883Z,25.84
2023-02-18T03:32:45.789Z,25.87
2023-02-18T03:33:45.767Z,25.88
2023-02-18T03:34:45.785Z,25.88
2023-02-18T03:35:45.741Z,25.84
2023-02-18T03:36:45.733Z,25.90
2023-02-18T03:37:45.728Z,25.88
2023-02-18T03:38:45.750Z,25.87
2023-02-18T03:39:45.719Z,25.88
2023-02-18T03:40:45.689Z,25.90
2023-02-18T03:41:45.669Z,25.90
2023-02-18T03:42:45.674Z,25.92
2023-02-18T03:43:45.654Z,25.94
2023-02-18T03:44:45.719Z,25.94
2023-02-18T03:45:45.714Z,25.94
2023-02-18T03:46:45.639Z,25.92
2023-02-18T03:47:45.646Z,25.98
2023-02-18T03:48:45.633Z,25.95
2023-02-18T03:49:45.628Z,25.98
2023-02-18T03:50:45.670Z,25.97
2023-02-18T03:51:45.589Z,25.97
2023-02-18T03:52:45.621Z,25.97
2023-02-18T03:53:45.582Z,25.97
2023-02-18T03:54:45.601Z,25.97
2023-02-18T03:55:45.563Z,25.97
2023-02-18T03:56:45.569Z,25.99
2023-02-18T03:57:45.575Z,25.98
2023-02-18T03:58:45.642Z,25.97
2023-02-18T03:59:45.568Z,25.97
2023-02-18T04:00:45.544Z,25.99
2023-02-18T04:01:45.546Z,25.95
2023-02-18T04:02:45.535Z,25.99
2023-02-18T04:03:45.526Z,25.97
2023-02-18T04:04:45.518Z,25.97
2023-02-18T04:05:45.505Z,25.99
2023-02-18T04:06:45.500Z,25.98
2023-02-18T04:07:45.497Z,25.98
2023-02-18T04:08:45.475Z,25.98
2023-02-18T04:09:45.478Z,25.97
2023-02-18T04:10:45.470Z,25.98
2023-02-18T04:11:45.439Z,25.90
2023-02-18T04:12:45.446Z,25.83
2023-02-18T04:13:45.450Z,25.80
2023-02-18T04:14:45.424Z,25.69
2023-02-18T04:15:45.416Z,25.70
2023-02-18T04:16:45.465Z,25.60
2023-02-18T04:17:45.391Z,25.53
2023-02-18T04:18:45.399Z,25.54
2023-02-18T04:19:45.384Z,25.39
2023-02-18T04:20:45.391Z,25.40
2023-02-18T04:21:45.407Z,25.39
2023-02-18T04:22:45.416Z,25.36
2023-02-18T04:23:45.398Z,25.25
2023-02-18T04:24:45.385Z,25.19
2023-02-18T04:25:45.369Z,25.17
2023-02-18T04:26:45.379Z,25.15
2023-02-18T04:27:45.366Z,25.11
2023-02-18T04:28:45.367Z,25.05
2023-02-18T04:29:45.366Z,25.08
2023-02-18T04:30:45.507Z,25.02
2023-02-18T04:31:45.405Z,25.07
2023-02-18T04:32:45.335Z,25.02
2023-02-18T04:33:45.344Z,24.98
2023-02-18T04:34:45.344Z,24.99
2023-02-18T04:35:45.334Z,24.94
2023-02-18T04:36:45.352Z,24.99
2023-02-18T04:37:45.348Z,24.92
2023-02-18T04:38:45.326Z,24.88
2023-02-18T04:39:45.324Z,24.91
2023-02-18T04:40:45.356Z,24.87
2023-02-18T04:41:45.323Z,24.95
2023-02-18T04:42:45.321Z,24.92
2023-02-18T04:43:45.300Z,24.90
2023-02-18T04:44:47.365Z,24.91
2023-02-18T04:45:45.364Z,24.85
2023-02-18T04:46:45.304Z,24.90
2023-02-18T04:47:45.290Z,24.85
2023-02-18T04:48:45.338Z,24.80
2023-02-18T04:49:45.293Z,24.84
2023-02-18T04:50:45.299Z,24.85
2023-02-18T04:51:45.303Z,24.88
2023-02-18T04:52:45.304Z,24.82
2023-02-18T04:53:45.302Z,24.84
2023-02-18T04:54:45.310Z,24.88
2023-02-18T04:55:45.312Z,24.84
2023-02-18T04:56:45.315Z,24.81
2023-02-18T04:57:45.307Z,24.80
2023-02-18T04:58:45.308Z,24.78
2023-02-18T04:59:45.314Z,24.82
2023-02-18T05:00:45.316Z,24.82
2023-02-18T05:01:45.325Z,24.77
2023-02-18T05:02:45.328Z,24.80
2023-02-18T05:03:45.348Z,24.81
2023-02-18T05:04:46.308Z,24.81
2023-02-18T05:05:45.331Z,24.75
2023-02-18T05:06:45.337Z,24.77
2023-02-18T05:07:45.304Z,24.73
2023-02-18T05:08:45.334Z,24.77
2023-02-18T05:09:45.303Z,24.74
2023-02-18T05:10:45.307Z,24.74
2023-02-18T05:11:45.319Z,24.73
2023-02-18T05:12:45.322Z,24.75
2023-02-18T05:13:45.307Z,24.74
2023-02-18T05:14:45.314Z,24.70
2023-02-18T05:15:45.419Z,24.74
2023-02-18T05:16:45.324Z,24.71
2023-02-18T05:17:45.309Z,24.75
2023-02-18T05:18:45.325Z,24.74
2023-02-18T05:19:45.319Z,24.74
2023-02-18T05:20:45.319Z,24.73
2023-02-18T05:21:45.326Z,24.71
2023-02-18T05:22:45.328Z,24.73
2023-02-18T05:23:45.310Z,24.68
2023-02-18T05:24:45.327Z,24.71
2023-02-18T05:25:45.323Z,24.68
2023-02-18T05:26:45.339Z,24.71
2023-02-18T05:27:45.330Z,24.73
2023-02-18T05:28:45.340Z,24.70
2023-02-18T05:29:45.344Z,24.68
2023-02-18T05:30:45.371Z,24.67
2023-02-18T05:31:45.478Z,24.66
2023-02-18T05:32:45.374Z,24.68
2023-02-18T05:33:45.360Z,24.66
2023-02-18T05:34:45.349Z,24.64
2023-02-18T05:35:45.344Z,24.64
2023-02-18T05:36:46.318Z,24.67
2023-02-18T05:37:46.322Z,24.66
2023-02-18T05:38:45.387Z,24.62
2023-02-18T05:39:45.372Z,24.59
2023-02-18T05:40:45.358Z,24.62
2023-02-18T05:41:45.362Z,24.63
2023-02-18T05:42:45.381Z,24.59
2023-02-18T05:43:45.372Z,24.62
2023-02-18T05:44:45.384Z,24.63
2023-02-18T05:45:45.371Z,24.57
2023-02-18T05:46:45.401Z,24.53
2023-02-18T05:47:45.396Z,24.62
2023-02-18T05:48:45.361Z,24.63
2023-02-18T05:49:45.365Z,24.57
2023-02-18T05:50:45.372Z,24.54
2023-02-18T05:51:45.376Z,24.57
2023-02-18T05:52:45.374Z,24.60
2023-02-18T05:53:45.371Z,24.57
2023-02-18T05:54:45.373Z,24.59
2023-02-18T05:55:45.372Z,24.57
2023-02-18T05:56:45.377Z,24.57
2023-02-18T05:57:45.378Z,24.56
2023-02-18T05:58:46.316Z,24.52
2023-02-18T05:59:45.406Z,24.56
2023-02-18T06:00:45.385Z,24.59
2023-02-18T06:01:45.384Z,24.59
2023-02-18T06:02:45.523Z,24.54
2023-02-18T06:03:45.389Z,24.53
2023-02-18T06:04:45.399Z,24.52
2023-02-18T06:05:45.430Z,24.54
2023-02-18T06:06:45.415Z,24.54
2023-02-18T06:07:45.419Z,24.53
2023-02-18T06:08:45.427Z,24.60
2023-02-18T06:09:45.429Z,24.62
2023-02-18T06:10:45.424Z,24.54
2023-02-18T06:11:45.417Z,24.57
2023-02-18T06:12:45.429Z,24.56
2023-02-18T06:13:45.417Z,24.53
2023-02-18T06:14:45.427Z,24.53
2023-02-18T06:15:45.466Z,24.56
2023-02-18T06:16:45.443Z,24.60
2023-02-18T06:17:45.421Z,24.57
2023-02-18T06:18:45.447Z,24.56
2023-02-18T06:19:45.426Z,24.54
2023-02-18T06:20:45.440Z,24.57
2023-02-18T06:21:46.322Z,24.47
2023-02-18T06:22:45.463Z,24.44
2023-02-18T06:23:45.468Z,24.47
2023-02-18T06:24:45.439Z,24.50
2023-02-18T06:25:45.440Z,24.53
2023-02-18T06:26:45.452Z,24.62
2023-02-18T06:27:45.467Z,24.68
2023-02-18T06:28:45.446Z,24.75
2023-02-18T06:29:45.448Z,24.80
2023-02-18T06:30:45.437Z,24.85
2023-02-18T06:31:45.622Z,24.88
2023-02-18T06:32:45.444Z,24.94
2023-02-18T06:33:45.474Z,24.98
2023-02-18T06:34:45.445Z,25.01
2023-02-18T06:35:45.453Z,25.05
2023-02-18T06:36:45.433Z,25.08
2023-02-18T06:37:45.434Z,25.12
2023-02-18T06:38:45.468Z,25.15
2023-02-18T06:39:45.420Z,25.19
2023-02-18T06:40:45.420Z,25.21
2023-02-18T06:41:45.419Z,25.25
2023-02-18T06:42:45.424Z,25.28
2023-02-18T06:43:45.522Z,25.32
2023-02-18T06:44:45.410Z,25.33
2023-02-18T06:45:45.433Z,25.36
2023-02-18T06:46:45.417Z,25.37
2023-02-18T06:47:45.396Z,25.40
2023-02-18T06:48:45.410Z,25.40
2023-02-18T06:49:45.399Z,25.43
2023-02-18T06:50:45.404Z,25.43
2023-02-18T06:51:46.330Z,25.46
2023-02-18T06:52:45.365Z,25.49
2023-02-18T06:53:45.380Z,25.49
2023-02-18T06:54:45.340Z,25.52
2023-02-18T06:55:45.346Z,25.54
2023-02-18T06:56:45.380Z,25.54
2023-02-18T06:57:45.349Z,25.57
2023-02-18T06:58:45.353Z,25.57
2023-02-18T06:59:45.321Z,25.59
2023-02-18T07:00:45.458Z,25.57
2023-02-18T07:01:45.316Z,25.53
2023-02-18T07:02:45.289Z,25.50
2023-02-18T07:03:45.372Z,25.37
2023-02-18T07:04:45.364Z,25.33
2023-02-18T07:05:45.344Z,25.25
2023-02-18T07:06:45.295Z,25.19
2023-02-18T07:07:45.313Z,25.22
2023-02-18T07:08:45.300Z,25.19
2023-02-18T07:09:45.301Z,25.14
2023-02-18T07:10:45.296Z,25.09
2023-02-18T07:11:45.299Z,25.08
2023-02-18T07:12:45.260Z,25.04
2023-02-18T07:13:45.846Z,24.90
2023-02-18T07:14:45.848Z,24.94
2023-02-18T07:15:45.240Z,24.88
2023-02-18T07:16:45.341Z,24.88
2023-02-18T07:17:45.271Z,24.92
2023-02-18T07:18:45.296Z,24.77
2023-02-18T07:19:45.264Z,24.85
2023-02-18T07:20:45.289Z,24.85
2023-02-18T07:21:45.853Z,24.80
2023-02-18T07:22:45.289Z,24.75
2023-02-18T07:23:45.836Z,24.74
2023-02-18T07:24:45.314Z,24.78
2023-02-18T07:25:45.274Z,24.64
2023-02-18T07:26:45.840Z,24.74
2023-02-18T07:27:45.290Z,24.74
2023-02-18T07:28:45.284Z,24.74
2023-02-18T07:29:45.295Z,24.63
2023-02-18T07:30:45.237Z,24.73
2023-02-18T07:31:45.372Z,24.80
2023-02-18T07:32:45.277Z,24.70
2023-02-18T07:33:45.295Z,24.73
2023-02-18T07:34:45.324Z,24.67
2023-02-18T07:35:45.846Z,24.64
2023-02-18T07:36:45.845Z,24.71
2023-02-18T07:37:45.318Z,24.82
2023-02-18T07:38:45.248Z,24.88
2023-02-18T07:39:45.229Z,24.95
2023-02-18T07:40:45.217Z,24.99
2023-02-18T07:41:45.300Z,25.04
2023-02-18T07:42:45.233Z,25.09
2023-02-18T07:43:45.195Z,25.14
2023-02-18T07:44:45.245Z,25.19
2023-02-18T07:45:45.194Z,25.23
2023-02-18T07:46:47.307Z,25.26
2023-02-18T07:47:45.873Z,25.33
2023-02-18T07:48:45.138Z,25.37
2023-02-18T07:49:45.174Z,25.39
2023-02-18T07:50:45.121Z,25.46
2023-02-18T07:51:45.125Z,25.49
2023-02-18T07:52:45.152Z,25.53
2023-02-18T07:53:45.113Z,25.59
2023-02-18T07:54:45.097Z,25.63
2023-02-18T07:55:45.080Z,25.63
2023-02-18T07:56:45.066Z,25.70
2023-02-18T07:57:45.066Z,25.70
2023-02-18T07:58:45.029Z,25.73
2023-02-18T07:59:45.040Z,25.80
2023-02-18T08:00:45.028Z,25.83
2023-02-18T08:01:45.157Z,25.87
2023-02-18T08:02:44.990Z,25.88
2023-02-18T08:03:45.034Z,25.94
2023-02-18T08:04:44.989Z,25.97
2023-02-18T08:05:44.968Z,25.97
2023-02-18T08:06:44.944Z,26.01
2023-02-18T08:07:44.944Z,26.04
2023-02-18T08:08:44.938Z,26.07
2023-02-18T08:09:44.952Z,26.08
2023-02-18T08:10:44.903Z,26.08
2023-02-18T08:11:44.913Z,26.09
2023-02-18T08:12:44.884Z,26.11
2023-02-18T08:13:47.002Z,26.16
2023-02-18T08:14:44.871Z,26.16
2023-02-18T08:15:44.834Z,26.19
2023-02-18T08:16:44.864Z,26.22
2023-02-18T08:17:44.816Z,26.26
2023-02-18T08:18:44.816Z,26.24
2023-02-18T08:19:44.795Z,26.21
2023-02-18T08:20:44.756Z,26.21
2023-02-18T08:21:44.746Z,26.19
2023-02-18T08:22:44.729Z,26.14
2023-02-18T08:23:44.697Z,26.15
2023-02-18T08:24:44.681Z,26.11
2023-02-18T08:25:44.661Z,26.14
2023-02-18T08:26:59.420Z,26.07
2023-02-18T08:27:45.624Z,26.11
2023-02-18T08:28:44.607Z,26.08
2023-02-18T08:29:44.894Z,26.02
2023-02-18T08:30:44.690Z,26.12
2023-02-18T08:31:44.969Z,26.14
2023-02-18T08:32:44.537Z,26.16
2023-02-18T08:33:44.555Z,26.19
2023-02-18T08:34:44.523Z,26.24
2023-02-18T08:35:44.517Z,26.28
2023-02-18T08:36:44.496Z,26.32
2023-02-18T08:37:53.758Z,26.36
2023-02-18T08:38:44.442Z,26.39
2023-02-18T08:39:44.448Z,26.43
2023-02-18T08:40:44.413Z,26.49
2023-02-18T08:41:44.416Z,26.49
2023-02-18T08:42:44.367Z,26.52
2023-02-18T08:43:44.349Z,26.57
2023-02-18T08:44:44.882Z,26.60
2023-02-18T08:45:44.346Z,26.61
2023-02-18T08:46:44.337Z,26.69
2023-02-18T08:48:18.537Z,26.70
2023-02-18T08:48:45.276Z,26.74
2023-02-18T08:49:44.207Z,26.73
2023-02-18T08:50:44.213Z,26.74
2023-02-18T08:51:44.167Z,26.76
2023-02-18T08:52:44.148Z,26.80
2023-02-18T08:53:44.125Z,26.83
2023-02-18T08:54:44.098Z,26.86
2023-02-18T08:55:44.118Z,26.86
2023-02-18T08:56:44.068Z,26.90
2023-02-18T08:57:44.049Z,26.90
2023-02-18T08:58:44.023Z,26.94
2023-02-18T08:59:44.018Z,26.94
2023-02-18T09:00:44.001Z,26.94
2023-02-18T09:01:44.063Z,26.95
2023-02-18T09:02:43.919Z,27.01
2023-02-18T09:03:43.921Z,27.02
2023-02-18T09:04:43.903Z,27.04
2023-02-18T09:05:43.865Z,27.06
2023-02-18T09:06:43.842Z,27.05
2023-02-18T09:07:43.806Z,27.08
2023-02-18T09:08:43.791Z,27.08
2023-02-18T09:09:43.781Z,27.09
2023-02-18T09:10:46.206Z,27.11
2023-02-18T09:11:43.823Z,27.12
2023-02-18T09:12:43.794Z,27.12
2023-02-18T09:13:43.772Z,27.16
2023-02-18T09:14:43.746Z,27.19
2023-02-18T09:15:43.764Z,27.21
2023-02-18T09:16:43.734Z,27.22
2023-02-18T09:17:43.686Z,27.24
2023-02-18T09:18:43.665Z,27.28
2023-02-18T09:19:43.642Z,27.24
2023-02-18T09:20:43.623Z,27.28
2023-02-18T09:21:44.399Z,27.28
2023-02-18T09:22:43.576Z,27.32
2023-02-18T09:23:43.567Z,27.31
2023-02-18T09:24:43.538Z,27.32
2023-02-18T09:25:43.518Z,27.33
2023-02-18T09:26:43.471Z,27.35
2023-02-18T09:27:43.457Z,27.35
2023-02-18T09:28:43.439Z,27.36
2023-02-18T09:29:43.446Z,27.38
2023-02-18T09:30:43.437Z,27.39
2023-02-18T09:31:43.497Z,27.39
2023-02-18T09:32:43.346Z,27.39
2023-02-18T09:33:45.434Z,27.39
2023-02-18T09:34:43.294Z,27.41
2023-02-18T09:35:43.266Z,27.38
2023-02-18T09:36:43.251Z,27.43
2023-02-18T09:37:43.236Z,27.42
2023-02-18T09:38:43.210Z,27.41
2023-02-18T09:39:43.177Z,27.42
2023-02-18T09:40:43.157Z,27.45
2023-02-18T09:41:43.152Z,27.45
2023-02-18T09:42:43.113Z,27.45
2023-02-18T09:43:43.082Z,27.48
2023-02-18T09:44:43.073Z,27.45
2023-02-18T09:45:43.054Z,27.45
2023-02-18T09:46:43.018Z,27.46
2023-02-18T09:47:42.994Z,27.46
2023-02-18T09:48:42.970Z,27.45
2023-02-18T09:49:42.948Z,27.43
2023-02-18T09:50:42.940Z,27.45
2023-02-18T09:51:42.894Z,27.42
2023-02-18T09:52:42.888Z,27.43
2023-02-18T09:53:42.866Z,27.46
2023-02-18T09:54:42.822Z,27.48
2023-02-18T09:55:42.807Z,27.45
2023-02-18T09:56:42.768Z,27.49
2023-02-18T09:57:42.748Z,27.46
2023-02-18T09:58:42.731Z,27.49
2023-02-18T09:59:42.701Z,27.45
2023-02-18T10:00:42.693Z,27.45
2023-02-18T10:01:42.696Z,27.46
2023-02-18T10:02:42.636Z,27.48
2023-02-18T10:03:42.631Z,27.42
2023-02-18T10:04:42.600Z,27.42
2023-02-18T10:05:42.570Z,27.45
2023-02-18T10:06:42.539Z,27.45
2023-02-18T10:07:42.508Z,27.42
2023-02-18T10:08:42.484Z,27.41
2023-02-18T10:09:42.489Z,27.38
2023-02-18T10:10:42.463Z,27.39
2023-02-18T10:11:42.466Z,27.39
2023-02-18T10:12:42.420Z,27.41
2023-02-18T10:13:42.374Z,27.38
2023-02-18T10:14:42.349Z,27.39
2023-02-18T10:15:42.411Z,27.39
2023-02-18T10:16:42.314Z,27.41
2023-02-18T10:17:42.288Z,27.39
2023-02-18T10:18:42.271Z,27.36
2023-02-18T10:19:42.260Z,27.33
2023-02-18T10:20:42.275Z,27.33
2023-02-18T10:21:42.216Z,27.39
2023-02-18T10:22:42.194Z,27.35
2023-02-18T10:23:42.154Z,27.33
2023-02-18T10:24:42.126Z,27.33
2023-02-18T10:25:42.101Z,27.33
2023-02-18T10:26:42.090Z,27.33
2023-02-18T10:27:42.061Z,27.33
2023-02-18T10:28:42.051Z,27.33
2023-02-18T10:29:42.004Z,27.36
2023-02-18T10:30:41.973Z,27.35
2023-02-18T10:31:42.003Z,27.31
2023-02-18T10:32:41.935Z,27.33
2023-02-18T10:33:41.898Z,27.32
2023-02-18T10:34:41.904Z,27.31
2023-02-18T10:35:41.867Z,27.33
2023-02-18T10:36:41.849Z,27.33
2023-02-18T10:37:41.805Z,27.29
2023-02-18T10:38:41.780Z,27.31
2023-02-18T10:39:41.756Z,27.32
2023-02-18T10:40:41.719Z,27.32
2023-02-18T10:41:41.680Z,27.31
2023-02-18T10:42:41.681Z,27.32
2023-02-18T10:43:41.641Z,27.33
2023-02-18T10:44:41.608Z,27.31
2023-02-18T10:45:41.578Z,27.32
2023-02-18T10:46:41.588Z,27.29
2023-02-18T10:47:41.510Z,27.31
2023-02-18T10:48:41.491Z,27.28
2023-02-18T10:49:41.457Z,27.31
2023-02-18T10:50:41.431Z,27.31
2023-02-18T10:51:41.408Z,27.29
2023-02-18T10:52:41.376Z,27.29
2023-02-18T10:53:41.350Z,27.29
2023-02-18T10:54:41.354Z,27.25
2023-02-18T10:55:41.289Z,27.26
2023-02-18T10:56:41.280Z,27.25
2023-02-18T10:57:41.252Z,27.26
2023-02-18T12:06:39.408Z,27.12
2023-02-18T12:07:39.401Z,27.11
2023-02-18T12:08:39.387Z,27.11
2023-02-18T12:09:39.384Z,27.11
2023-02-18T12:10:39.303Z,27.09
2023-02-18T12:11:39.274Z,27.08
2023-02-18T12:12:39.275Z,27.08
2023-02-18T12:13:39.251Z,27.11
2023-02-18T12:14:39.218Z,27.09
2023-02-18T12:15:39.183Z,27.08
2023-02-18T12:16:39.208Z,27.05
2023-02-18T12:17:39.146Z,27.06
2023-02-18T12:18:41.152Z,27.08
2023-02-18T12:19:39.083Z,27.06
2023-02-18T12:20:39.092Z,27.06
2023-02-18T12:21:39.070Z,27.09
2023-02-18T12:22:39.025Z,27.04
2023-02-18T12:23:39.026Z,27.04
2023-02-18T12:24:38.991Z,27.04
2023-02-18T12:25:38.957Z,27.05
2023-02-18T12:26:38.927Z,27.04
2023-02-18T12:27:38.930Z,27.04
2023-02-18T12:28:38.899Z,27.04
2023-02-18T12:29:38.870Z,27.05
2023-02-18T12:30:38.862Z,27.05
2023-02-18T12:31:38.960Z,27.04
2023-02-18T12:32:38.830Z,27.06
2023-02-18T12:33:45.886Z,27.05
2023-02-18T12:34:38.884Z,27.02
2023-02-18T12:35:38.843Z,27.02
2023-02-18T12:36:38.804Z,27.02
2023-02-18T12:37:38.818Z,27.04
2023-02-18T12:38:38.774Z,27.02
2023-02-18T12:39:38.773Z,27.02
2023-02-18T12:40:38.750Z,27.02
2023-02-18T12:41:38.738Z,27.02
2023-02-18T12:42:38.688Z,27.02
2023-02-18T12:44:38.689Z,27.04
2023-02-18T12:46:38.604Z,27.01
2023-02-18T12:47:38.604Z,27.01
2023-02-18T12:48:38.587Z,27.01
2023-02-18T12:49:38.601Z,27.02
2023-02-18T12:50:38.538Z,26.99
2023-02-18T12:51:38.536Z,27.04
2023-02-18T12:52:38.491Z,27.01
2023-02-18T12:53:38.467Z,27.01
2023-02-18T12:54:38.465Z,26.99
2023-02-18T12:55:38.416Z,27.01
2023-02-18T12:56:38.395Z,26.99
2023-02-18T12:57:38.379Z,26.98
2023-02-18T12:58:38.414Z,26.97
2023-02-18T12:59:38.400Z,26.97
2023-02-18T13:00:38.318Z,26.97
2023-02-18T13:01:38.314Z,26.98
2023-02-18T13:02:38.344Z,26.97
2023-02-18T13:03:38.296Z,26.93
2023-02-18T13:04:38.261Z,26.94
2023-02-18T13:05:38.217Z,26.94
2023-02-18T13:06:38.186Z,26.94
2023-02-18T13:07:38.158Z,26.93
2023-02-18T13:08:38.146Z,26.94
2023-02-18T13:09:38.146Z,26.94
2023-02-18T13:10:38.111Z,26.93
2023-02-18T13:11:38.077Z,26.90
2023-02-18T13:12:38.064Z,26.91
2023-02-18T13:13:38.030Z,26.88
2023-02-18T13:14:38.078Z,26.88
2023-02-18T13:15:37.984Z,26.91
2023-02-18T13:16:37.985Z,26.94
2023-02-18T13:17:37.900Z,26.93
2023-02-18T13:18:37.902Z,26.88
2023-02-18T13:19:37.897Z,26.93
2023-02-18T13:20:37.876Z,26.91
2023-02-18T13:21:37.820Z,26.93
2023-02-18T13:22:37.814Z,26.91
2023-02-18T13:23:37.796Z,26.93
2023-02-18T13:24:37.785Z,26.91
2023-02-18T13:25:37.778Z,26.90
2023-02-18T13:26:37.729Z,26.88
2023-02-18T13:27:37.701Z,26.90
2023-02-18T13:28:37.686Z,26.90
2023-02-18T13:29:37.629Z,26.91
2023-02-18T13:30:37.748Z,26.91
2023-02-18T13:31:37.750Z,26.90
2023-02-18T13:32:37.607Z,26.88
2023-02-18T13:33:37.573Z,26.88
2023-02-18T13:34:37.524Z,26.88
2023-02-18T13:35:37.533Z,26.88
2023-02-18T13:36:37.503Z,26.90
2023-02-18T13:37:37.513Z,26.88
2023-02-18T13:38:37.468Z,26.88
2023-02-18T13:39:37.426Z,26.88
2023-02-18T13:40:37.404Z,26.88
2023-02-18T13:41:37.404Z,26.88
2023-02-18T13:42:37.339Z,26.88
2023-02-18T13:43:37.334Z,26.88
2023-02-18T13:44:37.329Z,26.87
2023-02-18T13:45:37.280Z,26.87
2023-02-18T13:46:37.254Z,26.86
2023-02-18T13:47:37.225Z,26.86
2023-02-18T13:48:37.226Z,26.87
2023-02-18T13:49:37.210Z,26.87
2023-02-18T13:50:37.185Z,26.88
2023-02-18T13:51:37.136Z,26.83
2023-02-18T13:52:37.129Z,26.84
2023-02-18T13:53:37.137Z,26.87
2023-02-18T13:54:37.111Z,26.87
2023-02-18T13:55:37.084Z,26.87
2023-02-18T13:56:37.073Z,26.87
2023-02-18T13:57:37.050Z,26.86
2023-02-18T13:58:37.013Z,26.86
2023-02-18T13:59:37.011Z,26.83
2023-02-18T14:00:37.005Z,26.86
2023-02-18T14:01:36.970Z,26.86
2023-02-18T14:02:37.063Z,26.86
2023-02-18T14:03:36.940Z,26.86
2023-02-18T14:04:36.906Z,26.84
2023-02-18T14:05:36.906Z,26.86
2023-02-18T14:06:38.988Z,26.87
2023-02-18T14:07:36.887Z,26.86
2023-02-18T14:08:36.848Z,26.86
2023-02-18T14:09:36.832Z,26.87
2023-02-18T14:10:36.852Z,26.86
2023-02-18T14:11:36.884Z,26.86
2023-02-18T14:12:36.739Z,26.88
2023-02-18T14:13:36.735Z,26.87
2023-02-18T14:14:36.873Z,26.84
2023-02-18T14:15:36.777Z,26.86
2023-02-18T14:16:36.670Z,26.86
2023-02-18T14:17:36.678Z,26.87
2023-02-18T14:18:37.145Z,26.84
2023-02-18T14:19:36.644Z,26.86
2023-02-18T14:20:36.655Z,26.86
2023-02-18T14:21:36.610Z,26.84
2023-02-18T14:22:36.590Z,26.83
2023-02-18T14:23:36.578Z,26.83
2023-02-18T14:24:36.587Z,26.84
2023-02-18T14:25:36.578Z,26.83
2023-02-18T14:26:36.542Z,26.83
2023-02-18T14:27:36.524Z,26.84
2023-02-18T14:28:36.520Z,26.83
2023-02-18T14:29:36.532Z,26.84
2023-02-18T14:30:36.547Z,26.83
2023-02-18T14:31:36.517Z,26.81
2023-02-18T14:32:36.458Z,26.81
2023-02-18T14:33:36.437Z,26.81
2023-02-18T14:34:36.404Z,26.83
2023-02-18T14:35:36.396Z,26.83
2023-02-18T14:36:36.407Z,26.83
2023-02-18T14:37:36.360Z,26.81
2023-02-18T14:38:36.348Z,26.81
2023-02-18T14:39:36.323Z,26.81
2023-02-18T14:40:36.308Z,26.83
2023-02-18T14:41:36.297Z,26.81
2023-02-18T14:42:36.280Z,26.83
2023-02-18T14:43:36.264Z,26.80
2023-02-18T14:44:36.230Z,26.80
2023-02-18T14:45:36.239Z,26.80
2023-02-18T14:46:36.257Z,26.81
2023-02-18T14:47:36.184Z,26.83
2023-02-18T14:48:36.185Z,26.78
2023-02-18T14:49:36.175Z,26.78
2023-02-18T14:50:36.137Z,26.81
2023-02-18T14:51:36.141Z,26.80
2023-02-18T14:52:36.110Z,26.78
2023-02-18T14:53:36.119Z,26.78
2023-02-18T14:54:36.047Z,26.77
2023-02-18T14:55:36.080Z,26.80
2023-02-18T14:56:36.100Z,26.78
2023-02-18T14:57:36.028Z,26.80
2023-02-18T14:58:36.012Z,26.76
2023-02-18T14:59:35.977Z,26.78
2023-02-18T15:00:35.975Z,26.78
2023-02-18T15:01:36.022Z,26.78
2023-02-18T15:02:35.966Z,26.77
2023-02-18T15:03:35.906Z,26.74
2023-02-18T15:04:35.910Z,26.77
2023-02-18T15:05:35.878Z,26.76
2023-02-18T15:06:35.911Z,26.78
2023-02-18T15:07:35.865Z,26.76
2023-02-18T15:08:35.830Z,26.76
2023-02-18T15:09:35.844Z,26.77
2023-02-18T15:10:35.800Z,26.74
2023-02-18T15:11:35.798Z,26.74
2023-02-18T15:12:35.768Z,26.76
2023-02-18T15:13:35.752Z,26.76
2023-02-18T15:14:35.764Z,26.78
2023-02-18T15:15:35.717Z,26.74
2023-02-18T15:16:35.704Z,26.76
2023-02-18T15:17:35.660Z,26.71
2023-02-18T15:18:35.694Z,26.76
2023-02-18T15:19:35.649Z,26.74
2023-02-18T15:20:35.619Z,26.73